Time;durP1;ratioP1;P1;durP2;ratioP2;P2;SDS_P1;SDS_P2;PMS_P1;PMS_P2;Temp;Humidity;BMP_temperature;BMP_pressure;BME280_temperature;BME280_humidity;BME280_pressure;Samples;Min_cycle;Max_cycle;Signal;HPM_P1;HPM_P2
2022/08/06 00:01:56;;;;;;;5.17;3.03;;;20.60;99.90;;;;;;5029653;28;20437;-67
2022/08/06 00:04:22;;;;;;;5.90;2.60;;;20.60;99.90;;;;;;5024711;28;20806;-67
2022/08/06 00:06:48;;;;;;;4.10;2.93;;;20.50;99.90;;;;;;5023175;28;20170;-67
2022/08/06 00:09:13;;;;;;;3.10;2.90;;;20.50;99.90;;;;;;5028705;28;20467;-64
2022/08/06 00:11:39;;;;;;;3.23;2.83;;;20.50;99.90;;;;;;5022660;28;20648;-65
2022/08/06 00:14:06;;;;;;;4.33;2.80;;;20.40;99.90;;;;;;5025370;28;20183;-68
2022/08/06 00:16:32;;;;;;;3.47;2.90;;;20.40;99.90;;;;;;5023929;28;20476;-65
2022/08/06 00:18:57;;;;;;;2.97;2.67;;;20.30;99.90;;;;;;5022437;28;20538;-65
2022/08/06 00:21:23;;;;;;;3.03;2.83;;;20.40;99.90;;;;;;5029770;28;20232;-65
2022/08/06 00:23:49;;;;;;;2.90;2.70;;;20.40;99.90;;;;;;5028382;28;20182;-67
2022/08/06 00:26:14;;;;;;;2.90;2.70;;;20.50;99.90;;;;;;5023665;28;20187;-68
2022/08/06 00:28:40;;;;;;;3.07;2.40;;;20.40;99.90;;;;;;5020217;28;20453;-67
2022/08/06 00:31:07;;;;;;;2.97;2.67;;;20.40;99.90;;;;;;5026037;28;20732;-68
2022/08/06 00:33:33;;;;;;;3.10;2.83;;;20.40;99.90;;;;;;5028650;28;20229;-67
2022/08/06 00:35:58;;;;;;;3.27;2.97;;;20.40;99.90;;;;;;5019043;28;20451;-67
2022/08/06 00:38:24;;;;;;;3.27;2.93;;;20.40;99.90;;;;;;5029511;28;20460;-67
2022/08/06 00:40:50;;;;;;;3.40;3.20;;;20.30;99.90;;;;;;5023385;28;20264;-67
2022/08/06 00:43:16;;;;;;;3.03;2.73;;;20.30;99.90;;;;;;5026124;28;20191;-68
2022/08/06 00:45:41;;;;;;;3.60;2.73;;;20.20;99.90;;;;;;5027047;28;20444;-67
2022/08/06 00:48:07;;;;;;;3.13;2.87;;;20.30;99.90;;;;;;5026465;28;20260;-67
2022/08/06 00:50:33;;;;;;;3.00;2.80;;;20.20;99.90;;;;;;5034800;22;20616;-62
2022/08/06 00:53:00;;;;;;;3.53;3.27;;;20.20;99.90;;;;;;5034635;28;20635;-62
2022/08/06 00:55:26;;;;;;;3.10;2.80;;;20.30;99.90;;;;;;5034747;28;20433;-63
2022/08/06 00:57:51;;;;;;;3.10;2.80;;;20.40;99.90;;;;;;5039702;28;20474;-62
2022/08/06 01:00:17;;;;;;;3.57;2.53;;;20.40;99.90;;;;;;5042773;28;20484;-63
2022/08/06 01:02:43;;;;;;;3.03;2.63;;;20.30;99.90;;;;;;5039440;28;20185;-63
2022/08/06 01:05:08;;;;;;;2.70;2.50;;;20.30;99.90;;;;;;5040333;28;20178;-63
2022/08/06 01:07:34;;;;;;;4.83;2.57;;;20.30;99.90;;;;;;5042026;28;20182;-63
2022/08/06 01:09:59;;;;;;;2.90;2.70;;;20.40;99.90;;;;;;5036986;28;20206;-63
2022/08/06 01:12:28;;;;;;;2.70;2.50;;;20.30;99.90;;;;;;5040252;28;20182;-62
2022/08/06 01:14:53;;;;;;;3.17;2.60;;;20.40;99.90;;;;;;5040918;28;20181;-63
2022/08/06 01:17:28;;;;;;;2.53;2.43;;;20.40;99.90;;;;;;5032818;28;20445;-62
2022/08/06 01:20:09;;;;;;;2.80;2.30;;;20.40;99.90;;;;;;5037562;28;20197;-63
2022/08/06 01:23:18;;;;;;;3.03;2.50;;;20.40;99.90;;;;;;5041562;28;20439;-63
2022/08/06 01:26:12;;;;;;;2.37;2.27;;;20.40;99.90;;;;;;5041787;28;20959;-63
2022/08/06 01:28:45;;;;;;;4.23;2.33;;;20.50;99.90;;;;;;5035008;28;20440;-63
2022/08/06 01:31:20;;;;;;;2.40;2.30;;;20.50;99.90;;;;;;5039319;28;20464;-63
2022/08/06 01:33:52;;;;;;;3.47;2.70;;;20.40;99.90;;;;;;5029142;28;20450;-62
2022/08/06 01:36:40;;;;;;;3.30;2.40;;;20.30;99.90;;;;;;5037958;28;20435;-62
2022/08/06 01:39:06;;;;;;;2.40;2.30;;;20.20;99.90;;;;;;5038983;28;20518;-62
2022/08/06 01:41:43;;;;;;;3.87;3.00;;;20.20;99.90;;;;;;5040923;28;20456;-63
2022/08/06 01:44:17;;;;;;;2.90;2.20;;;20.30;99.90;;;;;;5036777;28;20524;-63
2022/08/06 01:46:49;;;;;;;2.47;2.37;;;20.30;99.90;;;;;;5034787;28;20440;-62
2022/08/06 01:49:20;;;;;;;2.10;1.90;;;20.30;99.90;;;;;;5034963;28;20476;-63
2022/08/06 01:51:49;;;;;;;3.27;2.50;;;20.30;99.90;;;;;;5028521;28;20981;-62
2022/08/06 01:54:16;;;;;;;2.63;2.43;;;20.30;99.90;;;;;;5042852;28;20470;-62
2022/08/06 01:56:46;;;;;;;3.27;3.07;;;20.20;99.90;;;;;;5038087;28;20840;-63
2022/08/06 01:59:15;;;;;;;2.60;2.40;;;20.10;99.90;;;;;;5036804;28;20611;-63
2022/08/06 02:01:41;;;;;;;2.97;2.50;;;19.90;99.90;;;;;;5040888;28;20546;-62
2022/08/06 02:04:09;;;;;;;2.37;2.27;;;20.00;99.90;;;;;;5042097;28;20862;-63
2022/08/06 02:06:37;;;;;;;2.47;2.27;;;20.00;99.90;;;;;;5039842;28;20807;-62
2022/08/06 02:09:11;;;;;;;2.40;2.20;;;20.00;99.90;;;;;;5037601;28;20440;-62
2022/08/06 02:11:38;;;;;;;4.50;2.50;;;20.00;99.90;;;;;;5041163;28;20492;-63
2022/08/06 02:14:06;;;;;;;2.50;2.30;;;19.90;99.90;;;;;;5042580;28;20841;-63
2022/08/06 02:16:36;;;;;;;4.40;2.37;;;19.90;99.90;;;;;;5040258;28;20443;-63
2022/08/06 02:19:05;;;;;;;2.73;2.53;;;20.00;99.90;;;;;;5033983;28;20543;-63
2022/08/06 02:21:33;;;;;;;2.90;2.70;;;19.80;99.90;;;;;;5040248;28;20475;-63
2022/08/06 02:24:01;;;;;;;2.07;1.97;;;19.70;99.90;;;;;;5038748;28;20932;-63
2022/08/06 02:26:28;;;;;;;2.10;2.00;;;19.70;99.90;;;;;;5031527;28;20800;-63
2022/08/06 02:28:57;;;;;;;2.53;2.33;;;19.70;99.90;;;;;;5038371;28;20520;-62
2022/08/06 02:31:22;;;;;;;2.37;2.17;;;19.70;99.90;;;;;;5032694;28;20509;-62
2022/08/06 02:33:48;;;;;;;2.93;2.73;;;19.70;99.90;;;;;;5033738;28;20940;-63
2022/08/06 02:36:29;;;;;;;6.40;2.90;;;19.70;99.90;;;;;;5033262;28;20178;-63
2022/08/06 02:39:01;;;;;;;2.30;2.20;;;19.70;99.90;;;;;;5037119;28;20460;-62
2022/08/06 02:41:49;;;;;;;2.70;2.50;;;19.60;99.90;;;;;;5039935;28;20499;-63
2022/08/06 02:44:40;;;;;;;2.53;2.33;;;19.50;99.90;;;;;;5042318;28;20990;-62
2022/08/06 02:47:13;;;;;;;2.63;2.43;;;19.50;99.90;;;;;;5033495;28;20808;-62
2022/08/06 02:49:44;;;;;;;3.07;2.77;;;19.50;99.90;;;;;;5033380;28;20441;-63
2022/08/06 02:52:40;;;;;;;5.23;2.70;;;19.50;99.90;;;;;;5041768;28;20550;-62
2022/08/06 02:55:19;;;;;;;3.30;2.70;;;19.50;99.90;;;;;;5020975;28;20452;-63
2022/08/06 02:57:55;;;;;;;5.25;2.70;;;19.50;99.90;;;;;;5027520;28;20449;-62
2022/08/06 03:00:22;;;;;;;2.83;2.63;;;19.50;99.90;;;;;;5040019;28;20504;-63
2022/08/06 03:02:55;;;;;;;2.80;2.50;;;19.60;99.90;;;;;;5038419;28;20786;-63
2022/08/06 03:05:22;;;;;;;2.77;2.57;;;19.60;99.90;;;;;;5038666;28;20844;-63
2022/08/06 03:07:51;;;;;;;2.53;2.43;;;19.60;99.90;;;;;;5042357;28;20448;-63
2022/08/06 03:10:22;;;;;;;2.60;2.50;;;19.60;99.90;;;;;;5041378;28;20971;-63
2022/08/06 03:12:49;;;;;;;2.80;2.50;;;19.60;99.90;;;;;;5036112;28;20477;-63
2022/08/06 03:15:18;;;;;;;4.33;2.53;;;19.50;99.90;;;;;;5041746;28;20461;-63
2022/08/06 03:17:45;;;;;;;2.50;2.30;;;19.40;99.90;;;;;;5045282;28;20517;-63
2022/08/06 03:20:15;;;;;;;5.07;2.50;;;19.30;99.90;;;;;;5040628;28;20495;-63
2022/08/06 03:22:42;;;;;;;5.43;2.73;;;19.30;99.90;;;;;;5043700;28;20916;-62
2022/08/06 03:25:09;;;;;;;8.10;2.77;;;19.30;99.90;;;;;;5045435;28;20873;-63
2022/08/06 03:27:37;;;;;;;2.77;2.57;;;19.30;99.90;;;;;;5034825;28;20437;-63
2022/08/06 03:30:04;;;;;;;2.60;2.50;;;19.30;99.90;;;;;;5038302;28;20506;-63
2022/08/06 03:32:31;;;;;;;3.23;2.60;;;19.30;99.90;;;;;;5038926;28;20448;-63
2022/08/06 03:34:58;;;;;;;4.50;2.77;;;19.40;99.90;;;;;;5045675;28;20440;-62
2022/08/06 03:37:24;;;;;;;2.83;2.60;;;19.40;99.90;;;;;;5044070;28;20543;-63
2022/08/06 03:39:50;;;;;;;3.17;2.87;;;19.30;99.90;;;;;;5039315;28;21129;-63
2022/08/06 03:42:16;;;;;;;3.10;2.83;;;19.30;99.90;;;;;;5051891;28;20569;-63
2022/08/06 03:44:42;;;;;;;3.53;3.23;;;19.30;99.90;;;;;;5049395;28;20515;-63
2022/08/06 03:47:24;;;;;;;4.00;3.10;;;19.30;99.90;;;;;;5034326;28;21142;-63
2022/08/06 03:50:01;;;;;;;2.30;2.20;;;19.40;99.90;;;;;;5033385;28;20571;-63
2022/08/06 03:52:31;;;;;;;4.67;2.87;;;19.40;99.90;;;;;;5034246;28;20477;-62
2022/08/06 03:55:02;;;;;;;3.67;2.90;;;19.20;99.90;;;;;;5034181;28;20432;-62
2022/08/06 03:57:35;;;;;;;3.80;2.57;;;19.20;99.90;;;;;;5033882;28;20523;-63
2022/08/06 04:00:03;;;;;;;3.60;3.30;;;19.20;99.90;;;;;;5037499;28;20843;-62
2022/08/06 04:02:36;;;;;;;2.90;2.43;;;19.10;99.90;;;;;;5040809;28;20452;-63
2022/08/06 04:05:02;;;;;;;2.77;2.57;;;19.10;99.90;;;;;;5044879;28;20444;-62
2022/08/06 04:07:29;;;;;;;3.30;2.63;;;19.10;99.90;;;;;;5043205;28;20810;-63
2022/08/06 04:09:56;;;;;;;3.40;3.10;;;19.10;99.90;;;;;;5039789;28;20476;-63
2022/08/06 04:12:22;;;;;;;3.43;3.07;;;19.10;99.90;;;;;;5040428;28;20483;-63
2022/08/06 04:14:48;;;;;;;2.50;2.40;;;19.00;99.90;;;;;;5044561;28;20501;-63
2022/08/06 04:17:16;;;;;;;3.00;2.80;;;19.10;99.90;;;;;;5036285;28;20536;-63
2022/08/06 04:19:43;;;;;;;3.10;2.77;;;19.10;99.90;;;;;;5043440;28;20486;-63
2022/08/06 04:22:09;;;;;;;3.23;3.03;;;19.10;99.90;;;;;;5041957;28;20479;-63
2022/08/06 04:24:34;;;;;;;3.33;3.13;;;19.20;99.90;;;;;;5036312;28;20476;-62
2022/08/06 04:27:04;;;;;;;5.40;2.90;;;19.20;99.90;;;;;;5044665;28;20880;-62
2022/08/06 04:29:32;;;;;;;2.70;2.50;;;19.20;99.90;;;;;;5042108;28;20194;-63
2022/08/06 04:31:59;;;;;;;3.53;3.33;;;19.20;99.90;;;;;;5046224;28;20447;-62
2022/08/06 04:34:25;;;;;;;3.90;2.97;;;19.10;99.90;;;;;;5038101;28;20858;-62
2022/08/06 04:36:52;;;;;;;3.47;3.17;;;19.10;99.90;;;;;;5046450;28;21155;-62
2022/08/06 04:39:18;;;;;;;2.70;2.30;;;19.20;99.90;;;;;;5041025;28;20571;-62
2022/08/06 04:41:44;;;;;;;2.83;2.63;;;19.30;99.90;;;;;;5042968;28;20812;-62
2022/08/06 04:44:11;;;;;;;2.70;2.50;;;19.20;99.90;;;;;;5043022;28;20494;-62
2022/08/06 04:46:38;;;;;;;3.03;2.80;;;19.30;99.90;;;;;;5035935;28;20569;-62
2022/08/06 04:49:03;;;;;;;4.50;3.00;;;19.30;99.90;;;;;;5045748;28;20475;-62
2022/08/06 04:51:29;;;;;;;3.90;3.20;;;19.30;99.90;;;;;;5040519;28;20583;-62
2022/08/06 04:53:55;;;;;;;2.80;2.60;;;19.20;99.90;;;;;;5042992;28;20885;-63
2022/08/06 04:56:21;;;;;;;3.17;2.97;;;19.10;99.90;;;;;;5033901;28;20181;-63
2022/08/06 04:58:47;;;;;;;3.30;2.80;;;19.20;99.90;;;;;;5046039;28;20475;-62
2022/08/06 05:01:13;;;;;;;2.83;2.50;;;19.20;99.90;;;;;;5036340;28;20209;-63
2022/08/06 05:03:39;;;;;;;2.77;2.30;;;19.10;99.90;;;;;;5039025;28;20441;-62
2022/08/06 05:06:43;;;;;;;3.10;2.60;;;19.00;99.90;;;;;;5040098;28;20440;-63
2022/08/06 05:09:19;;;;;;;3.60;2.83;;;19.20;99.90;;;;;;5030741;28;20667;-62
2022/08/06 05:11:50;;;;;;;3.20;3.00;;;19.10;99.90;;;;;;5038961;28;20460;-62
2022/08/06 05:14:24;;;;;;;3.60;2.07;;;19.20;99.90;;;;;;5039188;28;20452;-62
2022/08/06 05:16:50;;;;;;;3.20;2.80;;;19.30;99.90;;;;;;5031543;28;20446;-62
2022/08/06 05:19:28;;;;;;;7.90;2.60;;;19.30;99.90;;;;;;5034194;28;20809;-62
2022/08/06 05:21:57;;;;;;;3.13;2.93;;;19.30;99.90;;;;;;5030592;28;20546;-62
2022/08/06 05:24:23;;;;;;;3.33;3.03;;;19.30;99.90;;;;;;5039043;28;20779;-62
2022/08/06 05:26:49;;;;;;;4.00;2.73;;;19.40;99.90;;;;;;5040551;28;20780;-63
2022/08/06 05:29:19;;;;;;;3.57;3.37;;;19.50;99.90;;;;;;5035120;28;20503;-63
2022/08/06 05:31:45;;;;;;;2.80;2.40;;;19.50;99.90;;;;;;5044925;28;20280;-62
2022/08/06 05:34:12;;;;;;;4.30;2.67;;;19.30;99.90;;;;;;5041537;28;20964;-63
2022/08/06 05:36:38;;;;;;;3.57;3.00;;;19.30;99.90;;;;;;5037817;28;20212;-62
2022/08/06 05:39:04;;;;;;;5.90;3.00;;;19.30;99.90;;;;;;5042693;28;20983;-63
2022/08/06 05:41:30;;;;;;;3.10;2.90;;;19.30;99.90;;;;;;5034414;28;20552;-63
2022/08/06 05:43:56;;;;;;;3.50;2.97;;;19.30;99.90;;;;;;5047528;28;20519;-63
2022/08/06 05:46:23;;;;;;;3.50;2.60;;;19.40;99.90;;;;;;5040601;28;20186;-63
2022/08/06 05:49:00;;;;;;;4.57;3.33;;;19.60;99.90;;;;;;5037975;28;20440;-63
2022/08/06 05:51:49;;;;;;;3.20;3.00;;;19.80;99.90;;;;;;5040932;28;20471;-63
2022/08/06 05:54:31;;;;;;;3.53;2.87;;;19.90;99.90;;;;;;5039470;28;20463;-62
2022/08/06 05:57:06;;;;;;;4.00;3.70;;;19.90;99.90;;;;;;5037575;28;20445;-63
2022/08/06 05:59:37;;;;;;;3.63;3.37;;;20.00;99.90;;;;;;5037515;28;20468;-63
2022/08/06 06:02:04;;;;;;;3.47;3.13;;;20.10;99.90;;;;;;5030837;28;20437;-63
2022/08/06 06:04:31;;;;;;;3.30;3.10;;;20.20;99.90;;;;;;5035855;28;21076;-63
2022/08/06 06:06:57;;;;;;;4.20;3.80;;;20.20;99.90;;;;;;5037287;28;20437;-62
2022/08/06 06:09:23;;;;;;;3.77;3.07;;;20.30;99.90;;;;;;5038451;28;20452;-63
2022/08/06 06:11:49;;;;;;;3.33;3.10;;;20.30;99.90;;;;;;5041717;28;20201;-63
2022/08/06 06:14:32;;;;;;;3.13;2.80;;;20.40;99.90;;;;;;5041966;28;20542;-62
2022/08/06 06:17:34;;;;;;;2.70;2.50;;;20.50;99.90;;;;;;5039018;28;20494;-63
2022/08/06 06:20:19;;;;;;;3.33;3.10;;;20.60;99.90;;;;;;5029308;28;20517;-63
2022/08/06 06:23:12;;;;;;;5.30;2.73;;;20.60;99.90;;;;;;5037942;28;20441;-63
2022/08/06 06:25:58;;;;;;;3.53;3.23;;;20.50;99.90;;;;;;5041510;28;20432;-63
2022/08/06 06:28:28;;;;;;;3.90;3.50;;;20.60;99.90;;;;;;5038491;28;20428;-63
2022/08/06 06:30:57;;;;;;;3.63;3.37;;;20.80;99.90;;;;;;5038001;28;20511;-63
2022/08/06 06:33:46;;;;;;;5.50;3.60;;;20.90;99.90;;;;;;5033259;28;21189;-63
2022/08/06 06:36:29;;;;;;;3.20;2.90;;;21.20;99.90;;;;;;5034961;28;20825;-63
2022/08/06 06:39:10;;;;;;;3.70;3.03;;;21.40;99.90;;;;;;5035967;28;20471;-63
2022/08/06 06:41:44;;;;;;;3.97;3.53;;;21.50;99.90;;;;;;5040715;28;20637;-63
2022/08/06 06:44:14;;;;;;;3.60;3.30;;;21.60;99.90;;;;;;5042039;28;20451;-63
2022/08/06 06:46:59;;;;;;;3.63;3.20;;;21.60;99.90;;;;;;5038686;28;20806;-62
2022/08/06 06:49:29;;;;;;;6.37;3.20;;;21.50;99.90;;;;;;5035530;28;20960;-63
2022/08/06 06:52:05;;;;;;;7.17;6.57;;;21.40;99.90;;;;;;5041928;28;21141;-64
2022/08/06 06:54:39;;;;;;;8.07;3.90;;;21.50;99.90;;;;;;5040268;28;20439;-64
2022/08/06 06:57:09;;;;;;;3.77;3.10;;;21.70;99.90;;;;;;5040515;28;20505;-64
2022/08/06 06:59:37;;;;;;;3.37;3.07;;;21.80;99.90;;;;;;5043179;28;20464;-64
2022/08/06 07:02:05;;;;;;;2.73;2.53;;;22.10;99.90;;;;;;5045339;28;20560;-64
2022/08/06 07:04:32;;;;;;;3.73;3.43;;;22.40;99.90;;;;;;5034873;28;20447;-64
2022/08/06 07:06:58;;;;;;;2.73;2.53;;;22.60;99.90;;;;;;5035057;28;20552;-64
2022/08/06 07:09:28;;;;;;;4.10;3.40;;;22.70;99.90;;;;;;5036383;28;20440;-64
2022/08/06 07:11:56;;;;;;;3.20;3.00;;;23.00;99.90;;;;;;5054725;28;20854;-64
2022/08/06 07:14:23;;;;;;;5.17;3.50;;;23.20;99.90;;;;;;5040706;28;20487;-63
2022/08/06 07:16:52;;;;;;;6.60;2.90;;;23.20;99.90;;;;;;5034612;28;20988;-64
2022/08/06 07:19:19;;;;;;;3.57;3.27;;;23.20;99.90;;;;;;5034192;28;20753;-64
2022/08/06 07:21:46;;;;;;;4.60;2.90;;;22.90;99.90;;;;;;5034162;28;20451;-63
2022/08/06 07:24:13;;;;;;;3.63;3.33;;;22.70;99.90;;;;;;5034514;28;20786;-63
2022/08/06 07:26:42;;;;;;;4.10;3.67;;;22.50;99.90;;;;;;5034259;28;20417;-63
2022/08/06 07:29:10;;;;;;;3.40;3.13;;;22.50;99.90;;;;;;5033885;28;20933;-63
2022/08/06 07:31:37;;;;;;;3.17;2.97;;;22.40;99.90;;;;;;5034297;28;20441;-64
2022/08/06 07:34:04;;;;;;;2.97;2.73;;;22.20;99.90;;;;;;5034441;28;20420;-64
2022/08/06 07:36:39;;;;;;;3.60;3.20;;;22.20;99.90;;;;;;5034386;28;20429;-64
2022/08/06 07:39:10;;;;;;;4.17;3.20;;;22.40;99.90;;;;;;5033556;28;20509;-64
2022/08/06 07:41:37;;;;;;;3.07;2.87;;;22.60;99.90;;;;;;5037863;28;20815;-64
2022/08/06 07:44:05;;;;;;;4.03;3.73;;;22.90;99.90;;;;;;5051359;28;20533;-64
2022/08/06 07:46:37;;;;;;;4.97;3.17;;;23.30;99.90;;;;;;5042932;28;20441;-64
2022/08/06 07:49:06;;;;;;;3.73;3.30;;;23.50;99.90;;;;;;5044023;28;20447;-64
2022/08/06 07:51:38;;;;;;;4.40;2.90;;;23.70;99.30;;;;;;5037102;28;20819;-64
2022/08/06 07:54:06;;;;;;;4.13;3.83;;;23.80;99.10;;;;;;5043618;28;20453;-64
2022/08/06 07:56:34;;;;;;;3.80;3.50;;;24.20;98.80;;;;;;5043660;28;20473;-64
2022/08/06 07:59:00;;;;;;;4.33;3.90;;;24.50;97.90;;;;;;5044514;28;20467;-64
2022/08/06 08:01:27;;;;;;;3.87;3.57;;;24.50;97.10;;;;;;5036306;28;20460;-64
2022/08/06 08:06:39;;;;;;;4.37;3.60;;;24.00;97.40;;;;;;5035286;28;20439;-64
2022/08/06 08:09:15;;;;;;;3.47;3.27;;;23.80;98.00;;;;;;5037431;28;20445;-64
2022/08/06 08:11:42;;;;;;;4.40;2.73;;;24.00;97.60;;;;;;5043336;28;20471;-64
2022/08/06 08:14:10;;;;;;;5.63;3.23;;;24.40;96.70;;;;;;5038092;28;20458;-64
2022/08/06 08:16:42;;;;;;;3.53;3.23;;;24.50;96.10;;;;;;5035141;28;20440;-64
2022/08/06 08:19:23;;;;;;;4.67;4.07;;;24.60;96.00;;;;;;5043133;28;20464;-64
2022/08/06 08:21:52;;;;;;;3.10;2.90;;;24.70;95.80;;;;;;5035203;28;20512;-64
2022/08/06 08:24:18;;;;;;;4.03;3.70;;;25.00;95.30;;;;;;5044358;28;20519;-64
2022/08/06 08:26:44;;;;;;;3.90;3.50;;;25.10;94.30;;;;;;5040519;28;21000;-64
2022/08/06 08:29:10;;;;;;;3.70;3.40;;;25.00;94.60;;;;;;5040171;28;20813;-64
2022/08/06 08:31:36;;;;;;;3.20;2.90;;;24.90;94.60;;;;;;5038308;28;20476;-64
2022/08/06 08:34:02;;;;;;;5.43;2.83;;;25.20;94.10;;;;;;5044270;28;20446;-64
2022/08/06 08:36:27;;;;;;;3.57;2.80;;;25.30;93.10;;;;;;5039175;28;20625;-64
2022/08/06 08:38:56;;;;;;;3.40;3.20;;;25.60;93.00;;;;;;5034282;28;20469;-64
2022/08/06 08:41:30;;;;;;;3.60;3.10;;;25.60;92.40;;;;;;5033984;28;20196;-64
2022/08/06 08:44:06;;;;;;;2.77;2.57;;;25.80;92.60;;;;;;5034718;28;20441;-64
2022/08/06 08:46:39;;;;;;;4.80;3.03;;;26.30;92.00;;;;;;5039753;28;20432;-64
2022/08/06 08:49:07;;;;;;;3.03;2.77;;;26.20;90.10;;;;;;5043517;28;20436;-64
2022/08/06 08:51:38;;;;;;;2.73;2.53;;;26.10;88.90;;;;;;5041113;28;20542;-64
2022/08/06 08:54:07;;;;;;;2.70;2.50;;;26.10;89.10;;;;;;5043006;28;20945;-64
2022/08/06 08:56:33;;;;;;;4.10;3.17;;;26.60;88.00;;;;;;5041243;28;20531;-64
2022/08/06 08:59:01;;;;;;;4.53;2.60;;;26.90;85.90;;;;;;5044975;28;20455;-64
2022/08/06 09:01:26;;;;;;;4.40;2.93;;;26.80;85.10;;;;;;5039742;28;20511;-64
2022/08/06 09:03:52;;;;;;;3.40;3.20;;;26.30;86.10;;;;;;5039390;28;20850;-63
2022/08/06 09:06:20;;;;;;;3.30;3.03;;;25.60;87.60;;;;;;5041335;28;20228;-63
2022/08/06 09:08:47;;;;;;;3.90;3.60;;;25.10;88.90;;;;;;5049810;28;20170;-64
2022/08/06 09:11:14;;;;;;;4.07;3.00;;;24.60;89.70;;;;;;5052076;28;20534;-64
2022/08/06 09:13:39;;;;;;;3.13;2.93;;;24.30;90.20;;;;;;5032695;28;20844;-64
2022/08/06 09:16:05;;;;;;;5.70;4.13;;;23.90;90.50;;;;;;5032720;28;20429;-64
2022/08/06 09:18:31;;;;;;;3.40;2.90;;;23.70;90.90;;;;;;5031670;28;20209;-64
2022/08/06 09:21:00;;;;;;;4.00;3.00;;;23.60;91.10;;;;;;5032197;28;20445;-64
2022/08/06 09:23:25;;;;;;;5.73;3.30;;;23.50;91.00;;;;;;5032302;28;20170;-64
2022/08/06 09:25:52;;;;;;;3.40;3.20;;;23.90;91.40;;;;;;5032429;28;20425;-64
2022/08/06 09:28:36;;;;;;;4.40;3.97;;;24.20;90.50;;;;;;5031563;28;20687;-64
2022/08/06 09:31:04;;;;;;;5.40;4.90;;;24.40;90.20;;;;;;5032161;28;20494;-64
2022/08/06 09:33:31;;;;;;;4.80;3.40;;;24.50;90.00;;;;;;5030889;28;20942;-64
2022/08/06 09:36:05;;;;;;;4.67;3.73;;;24.40;90.00;;;;;;5032025;28;20599;-64
2022/08/06 09:38:31;;;;;;;4.13;3.83;;;24.20;90.70;;;;;;5037648;28;20468;-63
2022/08/06 09:41:10;;;;;;;3.63;3.43;;;23.80;90.80;;;;;;5035493;28;20468;-64
2022/08/06 09:43:37;;;;;;;3.53;3.23;;;23.30;91.50;;;;;;5046531;28;20452;-64
2022/08/06 09:46:04;;;;;;;3.17;2.80;;;23.30;91.50;;;;;;5041543;28;21021;-63
2022/08/06 09:48:30;;;;;;;3.60;3.40;;;23.30;91.50;;;;;;5034083;28;20590;-63
2022/08/06 09:50:55;;;;;;;2.93;2.73;;;23.40;91.40;;;;;;5037044;28;20567;-64
2022/08/06 09:53:22;;;;;;;4.57;3.30;;;23.70;91.40;;;;;;5045451;28;20177;-64
2022/08/06 09:55:53;;;;;;;3.37;3.07;;;24.00;90.90;;;;;;5027481;28;20182;-64
2022/08/06 09:58:37;;;;;;;5.53;3.67;;;24.00;90.50;;;;;;5041448;28;21149;-64
2022/08/06 10:01:18;;;;;;;4.60;3.77;;;24.00;90.20;;;;;;5038101;28;20456;-63
2022/08/06 10:03:44;;;;;;;3.50;3.20;;;24.10;90.40;;;;;;5042232;28;20443;-64
2022/08/06 10:06:13;;;;;;;3.43;3.23;;;24.00;90.20;;;;;;5041453;28;20814;-64
2022/08/06 10:08:39;;;;;;;2.90;2.60;;;24.00;90.70;;;;;;5029201;28;20213;-63
2022/08/06 10:11:06;;;;;;;4.37;3.67;;;24.00;91.10;;;;;;5036128;28;20974;-64
2022/08/06 10:13:32;;;;;;;9.43;8.63;;;24.00;91.00;;;;;;5040520;28;20471;-64
2022/08/06 10:16:17;;;;;;;4.50;4.10;;;24.10;91.00;;;;;;5042289;28;20789;-64
2022/08/06 10:18:46;;;;;;;3.23;3.03;;;23.90;90.70;;;;;;5037702;28;20497;-63
2022/08/06 10:21:17;;;;;;;4.00;3.70;;;23.90;91.40;;;;;;5031093;28;20519;-64
2022/08/06 10:23:48;;;;;;;4.13;3.83;;;24.00;90.30;;;;;;5038384;28;20497;-64
2022/08/06 10:26:18;;;;;;;2.90;2.70;;;24.60;89.40;;;;;;5046795;28;20443;-64
2022/08/06 10:28:46;;;;;;;5.17;3.60;;;25.00;89.10;;;;;;5042269;28;20841;-64
2022/08/06 10:31:13;;;;;;;6.73;3.33;;;25.50;87.60;;;;;;5043300;28;20464;-64
2022/08/06 10:33:41;;;;;;;3.20;3.00;;;25.70;86.00;;;;;;5041064;28;20532;-65
2022/08/06 10:36:12;;;;;;;3.93;3.27;;;25.90;85.50;;;;;;5036886;28;20481;-64
2022/08/06 10:38:42;;;;;;;3.73;3.07;;;25.80;85.10;;;;;;5040400;28;20461;-64
2022/08/06 10:41:11;;;;;;;3.20;2.90;;;25.60;84.00;;;;;;5039559;28;20991;-64
2022/08/06 10:43:37;;;;;;;3.20;2.90;;;25.50;84.20;;;;;;5044934;28;20451;-64
2022/08/06 10:46:12;;;;;;;3.53;3.20;;;25.40;83.60;;;;;;5039226;28;20459;-64
2022/08/06 10:48:40;;;;;;;4.17;3.30;;;25.60;83.40;;;;;;5039364;28;20451;-64
2022/08/06 10:51:07;;;;;;;3.23;2.97;;;25.70;82.10;;;;;;5033879;28;20468;-64
2022/08/06 10:53:34;;;;;;;4.57;3.57;;;26.10;81.10;;;;;;5043902;28;20444;-64
2022/08/06 10:56:02;;;;;;;3.67;3.37;;;26.60;80.70;;;;;;5046150;28;20523;-64
2022/08/06 10:58:30;;;;;;;3.50;3.20;;;27.10;79.10;;;;;;5041473;28;20843;-64
2022/08/06 11:00:57;;;;;;;3.33;3.03;;;28.30;75.30;;;;;;5041801;28;20456;-64
2022/08/06 11:03:40;;;;;;;4.30;3.27;;;30.10;69.80;;;;;;5041924;28;20437;-64
2022/08/06 11:06:28;;;;;;;3.70;3.40;;;32.10;61.40;;;;;;5037398;28;20440;-64
2022/08/06 11:09:05;;;;;;;3.23;2.93;;;34.70;54.00;;;;;;5038746;28;20800;-64
2022/08/06 11:12:02;;;;;;;2.93;2.63;;;35.90;48.80;;;;;;5035023;28;20456;-64
2022/08/06 11:14:27;;;;;;;2.50;2.30;;;36.00;46.10;;;;;;5033948;28;20795;-64
2022/08/06 11:16:58;;;;;;;3.03;2.77;;;34.40;46.80;;;;;;5039054;28;20493;-64
2022/08/06 11:19:45;;;;;;;5.10;3.13;;;32.50;47.90;;;;;;5043098;28;20716;-64
2022/08/06 11:22:35;;;;;;;4.80;4.40;;;30.20;51.00;;;;;;5032936;28;20443;-64
2022/08/06 11:25:02;;;;;;;5.40;3.70;;;29.70;51.80;;;;;;5037266;28;20468;-64
2022/08/06 11:27:51;;;;;;;5.80;3.10;;;30.40;51.70;;;;;;5035797;28;20992;-64
2022/08/06 11:30:20;;;;;;;3.80;3.57;;;30.50;51.60;;;;;;5041012;28;20586;-64
2022/08/06 11:32:48;;;;;;;3.80;3.50;;;31.30;50.90;;;;;;5041483;28;20447;-64
2022/08/06 11:35:35;;;;;;;3.87;3.43;;;31.50;50.80;;;;;;5043871;28;20574;-64
2022/08/06 11:38:01;;;;;;;3.40;3.10;;;31.90;50.00;;;;;;5041538;28;20451;-64
2022/08/06 11:40:27;;;;;;;3.20;3.00;;;31.40;50.50;;;;;;5041461;28;20476;-64
2022/08/06 11:42:53;;;;;;;2.93;2.80;;;30.20;51.10;;;;;;5042763;28;20489;-64
2022/08/06 11:45:19;;;;;;;5.40;2.60;;;29.70;52.20;;;;;;5050516;28;20182;-64
2022/08/06 11:48:06;;;;;;;2.83;2.63;;;29.40;52.00;;;;;;5040061;28;20311;-64
2022/08/06 11:50:32;;;;;;;3.80;2.97;;;29.40;52.60;;;;;;5036379;28;20983;-64
2022/08/06 11:52:58;;;;;;;2.40;2.30;;;30.80;51.30;;;;;;5044744;28;20531;-64
2022/08/06 11:55:23;;;;;;;3.83;2.63;;;32.30;49.50;;;;;;5036987;28;20178;-64
2022/08/06 11:58:06;;;;;;;3.33;3.03;;;33.40;47.80;;;;;;5042448;28;20545;-64
2022/08/06 12:00:31;;;;;;;5.77;3.23;;;34.80;45.70;;;;;;5035045;28;20205;-64
2022/08/06 12:02:57;;;;;;;6.80;2.93;;;36.10;43.70;;;;;;5044709;28;20436;-64
2022/08/06 12:05:23;;;;;;;2.30;2.20;;;37.20;41.70;;;;;;5044896;28;20621;-64
2022/08/06 12:08:18;;;;;;;2.67;2.50;;;38.50;40.80;;;;;;5040771;28;20452;-64
2022/08/06 12:11:22;;;;;;;5.17;2.80;;;38.20;39.70;;;;;;5044010;28;20850;-64
2022/08/06 12:13:48;;;;;;;2.93;2.73;;;37.40;40.10;;;;;;5033955;28;20523;-64
2022/08/06 12:16:46;;;;;;;3.57;3.27;;;38.30;39.30;;;;;;5032782;28;20531;-64
2022/08/06 12:19:14;;;;;;;3.20;3.00;;;39.40;37.40;;;;;;4997231;28;20586;-64
2022/08/06 12:21:40;;;;;;;3.27;3.00;;;38.30;37.30;;;;;;5041180;28;20483;-64
2022/08/06 12:24:07;;;;;;;2.70;2.47;;;36.70;38.40;;;;;;5038814;28;20987;-64
2022/08/06 12:26:33;;;;;;;5.00;3.00;;;35.60;39.60;;;;;;5039440;28;21009;-64
2022/08/06 12:29:02;;;;;;;4.33;2.50;;;34.00;40.70;;;;;;5040331;28;20475;-64
2022/08/06 12:31:33;;;;;;;3.27;2.97;;;31.60;43.50;;;;;;5032607;28;20487;-64
2022/08/06 12:34:00;;;;;;;3.50;2.90;;;30.30;45.00;;;;;;5043159;28;20440;-64
2022/08/06 12:36:28;;;;;;;3.27;3.07;;;29.50;46.10;;;;;;5043255;28;20447;-64
2022/08/06 12:38:59;;;;;;;3.03;2.73;;;30.50;46.10;;;;;;5039614;28;20461;-64
2022/08/06 12:41:36;;;;;;;5.57;3.00;;;31.00;44.80;;;;;;5032509;28;20460;-64
2022/08/06 12:44:02;;;;;;;3.60;3.27;;;30.90;44.80;;;;;;5044196;28;20913;-64
2022/08/06 12:46:28;;;;;;;4.30;3.30;;;30.80;45.40;;;;;;5035508;28;20445;-64
2022/08/06 12:48:54;;;;;;;4.20;3.40;;;31.00;45.30;;;;;;5039594;28;20599;-64
2022/08/06 12:51:20;;;;;;;2.90;2.70;;;33.50;43.30;;;;;;5040488;28;20668;-64
2022/08/06 12:53:53;;;;;;;4.77;2.83;;;36.80;40.60;;;;;;5043299;28;20466;-65
2022/08/06 12:56:22;;;;;;;5.27;3.10;;;39.60;37.60;;;;;;5036865;28;20197;-64
2022/08/06 12:58:48;;;;;;;2.77;2.57;;;38.60;36.50;;;;;;5036826;28;20517;-64
2022/08/06 13:01:17;;;;;;;2.90;2.70;;;36.60;37.30;;;;;;5032928;28;20456;-64
2022/08/06 13:03:46;;;;;;;4.97;3.00;;;34.80;39.60;;;;;;5042898;28;20508;-64
2022/08/06 13:06:14;;;;;;;2.70;2.50;;;33.80;40.50;;;;;;5042854;28;20435;-64
2022/08/06 13:08:40;;;;;;;3.20;2.83;;;36.40;39.50;;;;;;5032978;28;20436;-64